createdAt,value
2019-05-17T00:02:46.588Z,8.80
2019-05-17T00:12:48.164Z,7.53
2019-05-17T00:22:49.598Z,7.67
2019-05-17T00:32:51.092Z,8.60
2019-05-17T00:42:52.593Z,9.30
2019-05-17T00:52:54.031Z,9.37
2019-05-17T01:02:57.354Z,9.90
2019-05-17T01:13:00.235Z,7.77
2019-05-17T01:23:01.762Z,8.80
2019-05-17T01:33:03.559Z,8.10
2019-05-17T01:43:07.572Z,8.40
2019-05-17T01:53:08.489Z,8.27
2019-05-17T02:03:10.150Z,8.60
2019-05-17T02:13:11.681Z,8.27
2019-05-17T02:23:13.324Z,8.07
2019-05-17T02:33:15.061Z,8.77
2019-05-17T02:43:16.816Z,9.57
2019-05-17T02:53:18.227Z,9.27
2019-05-17T03:03:19.683Z,9.87
2019-05-17T03:13:23.362Z,9.83
2019-05-17T03:23:25.038Z,8.87
2019-05-17T03:33:27.786Z,12.03
2019-05-17T03:43:29.298Z,11.77
2019-05-17T03:53:33.520Z,11.33
2019-05-17T04:03:35.470Z,11.47
2019-05-17T04:13:37.244Z,12.43
2019-05-17T04:23:38.675Z,10.37
2019-05-17T04:33:42.834Z,11.83
2019-05-17T04:43:43.582Z,15.47
2019-05-17T04:53:45.147Z,16.97
2019-05-17T05:03:46.561Z,17.63
2019-05-17T05:13:48.032Z,17.13
2019-05-17T05:23:51.704Z,17.70
2019-05-17T05:33:52.922Z,17.47
2019-05-17T05:43:54.351Z,21.77
2019-05-17T05:53:55.758Z,16.83
2019-05-17T06:03:57.193Z,14.90
2019-05-17T06:13:58.646Z,12.00
2019-05-17T06:24:02.427Z,10.20
2019-05-17T06:34:03.749Z,8.53
2019-05-17T06:44:05.435Z,8.73
2019-05-17T06:54:06.859Z,8.17
2019-05-17T07:04:10.245Z,7.70
2019-05-17T07:14:11.762Z,8.30
2019-05-17T07:24:13.200Z,8.43
2019-05-17T07:34:14.743Z,8.28
2019-05-17T07:44:17.577Z,8.65
2019-05-17T07:54:19.705Z,8.75
2019-05-17T08:04:21.224Z,7.58
2019-05-17T08:14:30.065Z,7.62
2019-05-17T08:24:26.238Z,7.90
2019-05-17T08:34:29.316Z,7.70
2019-05-17T08:44:30.903Z,6.95
2019-05-17T08:54:32.538Z,7.10
2019-05-17T09:04:34.190Z,7.10
2019-05-17T09:14:35.662Z,7.62
2019-05-17T09:24:39.509Z,7.80
2019-05-17T09:34:40.576Z,5.92
2019-05-17T09:44:42.048Z,5.75
2019-05-17T09:54:45.422Z,5.05
2019-05-17T10:04:46.902Z,5.65
2019-05-17T10:14:49.793Z,6.03
2019-05-17T10:24:51.919Z,6.25
2019-05-17T10:34:53.332Z,6.42
2019-05-17T10:44:54.957Z,5.45
2019-05-17T10:54:59.813Z,5.40
2019-05-17T11:05:01.940Z,4.73
2019-05-17T11:15:11.613Z,5.00
2019-05-17T11:25:09.263Z,4.35
2019-05-17T11:35:10.811Z,3.47
2019-05-17T11:45:26.648Z,2.87
2019-05-17T11:55:16.077Z,2.72
2019-05-17T12:05:18.119Z,3.20
2019-05-17T12:15:19.595Z,2.87
2019-05-17T12:25:21.282Z,1.90
2019-05-17T12:35:22.739Z,2.80
2019-05-17T12:45:24.533Z,3.60
2019-05-17T12:55:25.972Z,3.07
2019-05-17T13:05:27.480Z,2.60
2019-05-17T13:15:29.151Z,2.27
2019-05-17T13:25:30.609Z,2.57
2019-05-17T13:35:32.239Z,1.27
2019-05-17T13:45:33.809Z,1.47
2019-05-17T13:55:35.347Z,1.20
2019-05-17T14:05:37.092Z,1.37
2019-05-17T14:15:38.758Z,1.60
2019-05-17T14:25:40.298Z,1.30
2019-05-17T14:35:41.902Z,1.40
2019-05-17T14:45:43.450Z,1.70
2019-05-17T14:55:45.910Z,1.33
2019-05-17T15:05:47.484Z,1.33
2019-05-17T15:15:49.047Z,1.40
2019-05-17T15:25:50.601Z,1.83
2019-05-17T15:35:52.075Z,1.93
2019-05-17T15:45:53.551Z,1.30
2019-05-17T15:55:55.023Z,1.40
2019-05-17T16:05:56.582Z,1.60
2019-05-17T16:15:58.285Z,1.07
2019-05-17T16:25:59.906Z,1.50
2019-05-17T16:36:01.457Z,1.73
2019-05-17T16:46:22.878Z,1.90
2019-05-17T16:56:24.424Z,2.07
2019-05-17T17:06:26.064Z,1.80
2019-05-17T17:16:28.901Z,1.80
2019-05-17T17:26:30.330Z,1.97
2019-05-17T17:36:32.318Z,1.20
2019-05-17T17:46:35.688Z,1.53
2019-05-17T17:56:37.141Z,1.53
2019-05-17T18:06:41.629Z,1.50
2019-05-17T18:16:43.079Z,1.50
2019-05-17T18:26:44.704Z,1.97
2019-05-17T18:36:46.342Z,1.87
2019-05-17T18:46:47.890Z,1.80
2019-05-17T18:56:49.437Z,12.50
2019-05-17T19:06:50.915Z,1.90
2019-05-17T19:16:52.459Z,1.70
2019-05-17T19:26:53.950Z,2.80
2019-05-17T19:36:55.528Z,2.30
2019-05-17T19:47:00.330Z,2.70
2019-05-17T19:57:02.271Z,2.33
2019-05-17T20:07:04.282Z,2.10
2019-05-17T20:17:05.735Z,2.07
2019-05-17T20:27:07.446Z,2.17
2019-05-17T20:37:09.092Z,2.00
2019-05-17T20:47:10.662Z,2.30
2019-05-17T20:57:12.158Z,2.40
2019-05-17T21:07:15.624Z,2.30
2019-05-17T21:17:17.301Z,2.67
2019-05-17T21:27:19.010Z,2.70
2019-05-17T21:37:21.110Z,2.77
2019-05-17T21:47:24.591Z,2.67
2019-05-17T21:57:26.078Z,2.77
2019-05-17T22:07:30.558Z,2.77
2019-05-17T22:17:32.103Z,2.93
2019-05-17T22:27:33.692Z,3.40
2019-05-17T22:37:35.227Z,3.53
2019-05-17T22:47:36.869Z,3.13
2019-05-17T22:57:38.423Z,3.53
2019-05-17T23:07:39.835Z,4.20
2019-05-17T23:17:41.271Z,3.60
2019-05-17T23:27:42.760Z,3.60
2019-05-17T23:37:44.198Z,3.43
2019-05-17T23:47:45.637Z,3.10
2019-05-17T23:57:47.082Z,3.47
